createdAt,value
2019-05-18T00:00:10.077Z,13.60
2019-05-18T00:02:41.035Z,13.25
2019-05-18T00:05:10.611Z,13.45
2019-05-18T00:07:39.951Z,13.25
2019-05-18T00:10:09.572Z,15.03
2019-05-18T00:12:39.003Z,15.00
2019-05-18T00:15:10.490Z,14.23
2019-05-18T00:17:39.833Z,14.53
2019-05-18T00:20:09.618Z,14.90
2019-05-18T00:22:38.970Z,14.90
2019-05-18T00:25:08.574Z,13.70
2019-05-18T00:27:37.991Z,13.83
2019-05-18T00:30:10.793Z,14.05
2019-05-18T00:32:40.128Z,14.37
2019-05-18T00:35:09.973Z,14.73
2019-05-18T00:37:39.377Z,15.50
2019-05-18T00:40:08.846Z,14.18
2019-05-18T00:42:38.213Z,14.30
2019-05-18T00:45:10.456Z,15.70
2019-05-18T00:47:41.703Z,14.47
2019-05-18T00:50:11.356Z,15.32
2019-05-18T00:52:41.025Z,15.05
2019-05-18T00:55:10.852Z,14.95
2019-05-18T00:57:40.190Z,14.25
2019-05-18T01:00:10.643Z,14.65
2019-05-18T01:02:40.041Z,16.30
2019-05-18T01:05:09.507Z,15.32
2019-05-18T01:07:38.857Z,15.03
2019-05-18T01:10:09.231Z,15.85
2019-05-18T01:12:38.570Z,15.35
2019-05-18T01:15:08.872Z,16.80
2019-05-18T01:17:38.277Z,16.30
2019-05-18T01:20:08.046Z,15.95
2019-05-18T01:22:37.645Z,15.13
2019-05-18T01:25:07.911Z,16.65
2019-05-18T01:27:37.285Z,16.07
2019-05-18T01:30:08.114Z,16.90
2019-05-18T01:32:38.428Z,16.25
2019-05-18T01:35:08.296Z,16.17
2019-05-18T01:37:37.967Z,17.02
2019-05-18T01:40:07.743Z,17.37
2019-05-18T01:42:37.127Z,17.27
2019-05-18T01:45:16.525Z,17.45
2019-05-18T01:47:39.466Z,16.97
2019-05-18T01:50:09.318Z,17.90
2019-05-18T01:52:38.646Z,18.25
2019-05-18T01:55:09.822Z,17.05
2019-05-18T01:57:39.150Z,16.37
2019-05-18T02:00:10.325Z,18.12
2019-05-18T02:02:39.648Z,18.50
2019-05-18T02:05:10.337Z,18.67
2019-05-18T02:07:39.666Z,18.60
2019-05-18T02:10:09.444Z,18.52
2019-05-18T02:12:38.780Z,19.27
2019-05-18T02:15:08.989Z,18.75
2019-05-18T02:17:38.324Z,19.00
2019-05-18T02:20:08.364Z,18.45
2019-05-18T02:22:37.689Z,19.02
2019-05-18T02:25:07.862Z,18.23
2019-05-18T02:27:37.435Z,18.60
2019-05-18T02:30:07.911Z,18.35
2019-05-18T02:32:37.254Z,18.82
2019-05-18T02:35:07.019Z,18.90
2019-05-18T02:37:36.345Z,18.42
2019-05-18T02:40:07.135Z,17.82
2019-05-18T02:42:36.530Z,18.05
2019-05-18T02:45:07.619Z,16.93
2019-05-18T02:47:37.074Z,16.80
2019-05-18T02:50:08.214Z,16.00
2019-05-18T02:52:38.532Z,18.30
2019-05-18T02:55:08.802Z,17.55
2019-05-18T02:57:38.178Z,18.10
2019-05-18T03:00:10.739Z,17.25
2019-05-18T03:02:40.077Z,18.10
2019-05-18T03:05:09.858Z,18.48
2019-05-18T03:07:39.173Z,17.85
2019-05-18T03:10:08.753Z,16.93
2019-05-18T03:12:38.072Z,17.75
2019-05-18T03:15:08.727Z,18.45
2019-05-18T03:17:38.051Z,17.67
2019-05-18T03:20:07.828Z,16.50
2019-05-18T03:22:37.248Z,16.93
2019-05-18T03:25:09.776Z,18.45
2019-05-18T03:27:39.109Z,17.48
2019-05-18T03:30:08.991Z,18.60
2019-05-18T03:32:38.319Z,17.32
2019-05-18T03:35:07.831Z,18.02
2019-05-18T03:37:37.159Z,17.02
2019-05-18T03:40:06.645Z,17.02
2019-05-18T03:42:35.973Z,18.40
2019-05-18T03:45:05.764Z,18.48
2019-05-18T03:47:35.091Z,17.12
2019-05-18T03:50:09.752Z,17.95
2019-05-18T03:52:39.076Z,17.67
2019-05-18T03:55:08.651Z,17.05
2019-05-18T03:57:37.984Z,17.55
2019-05-18T04:00:08.065Z,19.02
2019-05-18T04:02:37.678Z,17.82
2019-05-18T04:05:07.847Z,16.77
2019-05-18T04:07:37.179Z,17.98
2019-05-18T04:10:09.655Z,17.32
2019-05-18T04:12:38.996Z,17.40
2019-05-18T04:15:09.838Z,16.77
2019-05-18T04:17:39.177Z,16.30
2019-05-18T04:20:08.943Z,17.57
2019-05-18T04:22:38.258Z,17.02
2019-05-18T04:25:07.856Z,17.90
2019-05-18T04:27:37.183Z,18.30
2019-05-18T04:30:09.826Z,18.57
2019-05-18T04:32:39.163Z,18.92
2019-05-18T04:35:08.769Z,18.30
2019-05-18T04:37:38.119Z,19.07
2019-05-18T04:40:08.170Z,19.80
2019-05-18T04:42:37.497Z,19.82
2019-05-18T04:45:09.320Z,20.60
2019-05-18T04:47:38.669Z,20.95
2019-05-18T04:50:09.539Z,22.07
2019-05-18T04:52:38.878Z,22.60
2019-05-18T04:55:08.282Z,21.60
2019-05-18T04:57:37.620Z,23.42
2019-05-18T05:00:08.481Z,23.87
2019-05-18T05:02:37.878Z,23.55
2019-05-18T05:05:07.835Z,24.18
2019-05-18T05:07:37.162Z,23.40
2019-05-18T05:10:07.158Z,24.67
2019-05-18T05:12:36.465Z,24.35
2019-05-18T05:15:05.869Z,23.62
2019-05-18T05:17:36.187Z,24.35
2019-05-18T05:20:18.631Z,23.62
2019-05-18T05:22:37.709Z,22.98
2019-05-18T05:25:07.185Z,23.40
2019-05-18T05:27:36.537Z,22.82
2019-05-18T05:30:09.169Z,23.92
2019-05-18T05:32:38.511Z,23.75
2019-05-18T05:35:08.585Z,22.75
2019-05-18T05:37:37.923Z,22.82
2019-05-18T05:40:07.705Z,21.82
2019-05-18T05:42:37.045Z,21.90
2019-05-18T05:45:09.729Z,21.02
2019-05-18T05:47:39.058Z,21.65
2019-05-18T05:50:09.931Z,21.07
2019-05-18T05:52:39.310Z,20.02
2019-05-18T05:55:09.473Z,20.23
2019-05-18T05:57:38.801Z,20.82
2019-05-18T06:00:09.475Z,20.48
2019-05-18T06:02:38.812Z,20.23
2019-05-18T06:05:08.385Z,19.07
2019-05-18T06:07:37.733Z,19.40
2019-05-18T06:10:08.469Z,18.75
2019-05-18T06:12:37.822Z,18.95
2019-05-18T06:15:08.972Z,18.30
2019-05-18T06:17:39.506Z,19.12
2019-05-18T06:20:09.683Z,18.92
2019-05-18T06:22:39.321Z,17.98
2019-05-18T06:25:08.992Z,19.65
2019-05-18T06:27:38.341Z,18.05
2019-05-18T06:30:09.151Z,18.05
2019-05-18T06:32:38.651Z,17.92
2019-05-18T06:35:08.831Z,19.92
2019-05-18T06:37:38.167Z,18.92
2019-05-18T06:40:07.948Z,18.05
2019-05-18T06:42:37.355Z,18.52
2019-05-18T06:45:07.836Z,18.07
2019-05-18T06:47:37.185Z,18.50
2019-05-18T06:50:12.093Z,19.07
2019-05-18T06:52:39.468Z,18.65
2019-05-18T06:55:09.340Z,16.87
2019-05-18T06:57:39.211Z,17.02
2019-05-18T07:00:10.835Z,16.65
2019-05-18T07:02:40.170Z,16.80
2019-05-18T07:05:09.852Z,16.73
2019-05-18T07:07:39.185Z,17.35
2019-05-18T07:10:09.377Z,17.67
2019-05-18T07:12:38.699Z,17.85
2019-05-18T07:15:08.880Z,19.32
2019-05-18T07:17:39.184Z,17.87
2019-05-18T07:20:09.763Z,18.90
2019-05-18T07:22:39.100Z,18.50
2019-05-18T07:25:08.779Z,19.42
2019-05-18T07:27:38.523Z,19.87
2019-05-18T07:30:08.507Z,20.27
2019-05-18T07:32:37.984Z,19.12
2019-05-18T07:35:08.842Z,18.67
2019-05-18T07:37:38.175Z,18.85
2019-05-18T07:40:08.313Z,19.12
2019-05-18T07:42:37.644Z,18.48
2019-05-18T07:45:09.021Z,19.07
2019-05-18T07:47:38.384Z,18.17
2019-05-18T07:50:08.233Z,17.77
2019-05-18T07:52:37.571Z,16.87
2019-05-18T07:55:07.195Z,17.07
2019-05-18T07:57:36.667Z,16.25
2019-05-18T08:00:07.139Z,16.25
2019-05-18T08:02:36.639Z,15.45
2019-05-18T08:05:07.586Z,16.42
2019-05-18T08:07:36.922Z,15.90
2019-05-18T08:10:08.196Z,15.78
2019-05-18T08:12:37.537Z,15.15
2019-05-18T08:15:09.009Z,13.83
2019-05-18T08:17:38.352Z,13.98
2019-05-18T08:20:08.317Z,13.65
2019-05-18T08:22:37.668Z,12.73
2019-05-18T08:25:07.860Z,12.30
2019-05-18T08:27:37.205Z,12.13
2019-05-18T08:30:09.582Z,12.90
2019-05-18T08:32:38.949Z,11.33
2019-05-18T08:35:09.674Z,11.33
2019-05-18T08:37:39.025Z,12.43
2019-05-18T08:40:10.097Z,11.93
2019-05-18T08:42:39.566Z,12.82
2019-05-18T08:45:10.857Z,13.08
2019-05-18T08:47:40.603Z,12.75
2019-05-18T08:50:10.374Z,11.55
2019-05-18T08:52:39.720Z,12.75
2019-05-18T08:55:10.043Z,11.90
2019-05-18T08:57:39.389Z,12.07
2019-05-18T09:00:09.957Z,12.43
2019-05-18T09:02:39.300Z,13.70
2019-05-18T09:05:09.378Z,11.50
2019-05-18T09:07:38.948Z,12.00
2019-05-18T09:10:09.008Z,11.63
2019-05-18T09:12:38.350Z,11.83
2019-05-18T09:15:08.160Z,12.05
2019-05-18T09:17:37.491Z,12.15
2019-05-18T09:20:07.859Z,12.73
2019-05-18T09:22:37.347Z,13.08
2019-05-18T09:25:07.878Z,11.88
2019-05-18T09:27:38.191Z,12.80
2019-05-18T09:30:08.875Z,12.75
2019-05-18T09:32:38.474Z,13.30
2019-05-18T09:35:09.318Z,12.75
2019-05-18T09:37:38.979Z,12.80
2019-05-18T09:40:08.846Z,11.97
2019-05-18T09:42:38.325Z,13.43
2019-05-18T09:45:08.811Z,10.93
2019-05-18T09:47:38.162Z,10.10
2019-05-18T09:50:09.303Z,12.07
2019-05-18T09:52:46.502Z,12.05
2019-05-18T09:55:10.191Z,10.28
2019-05-18T09:57:39.534Z,9.75
2019-05-18T10:00:10.806Z,11.03
2019-05-18T10:02:40.422Z,13.45
2019-05-18T10:05:10.397Z,12.95
2019-05-18T10:07:40.015Z,14.63
2019-05-18T10:10:10.623Z,14.75
2019-05-18T10:12:41.385Z,14.45
2019-05-18T10:15:10.870Z,15.55
2019-05-18T10:17:40.276Z,15.90
2019-05-18T10:20:10.352Z,12.30
2019-05-18T10:22:53.298Z,14.28
2019-05-18T10:25:11.596Z,14.70
2019-05-18T10:27:41.204Z,13.13
2019-05-18T10:30:10.959Z,14.35
2019-05-18T10:32:40.295Z,15.43
2019-05-18T10:35:10.185Z,14.93
2019-05-18T10:37:39.513Z,13.22
2019-05-18T10:40:09.935Z,11.05
2019-05-18T10:42:39.266Z,11.38
2019-05-18T10:45:08.938Z,11.70
2019-05-18T10:47:38.340Z,8.20
2019-05-18T10:50:08.408Z,8.00
2019-05-18T10:52:37.989Z,5.33
2019-05-18T10:55:10.325Z,11.70
2019-05-18T10:57:39.764Z,8.40
2019-05-18T11:00:11.715Z,9.18
2019-05-18T11:02:41.142Z,6.50
2019-05-18T11:05:10.918Z,3.47
2019-05-18T11:07:40.549Z,9.88
2019-05-18T11:10:11.057Z,9.85
2019-05-18T11:12:40.520Z,9.40
2019-05-18T11:15:12.527Z,9.00
2019-05-18T11:17:41.853Z,3.45
2019-05-18T11:20:12.173Z,6.70
2019-05-18T11:22:41.561Z,8.15
2019-05-18T11:25:11.086Z,9.70
2019-05-18T11:27:40.414Z,10.60
2019-05-18T11:30:12.607Z,9.20
2019-05-18T11:32:41.926Z,7.33
2019-05-18T11:35:12.312Z,8.23
2019-05-18T11:37:41.621Z,6.20
2019-05-18T11:40:14.351Z,8.00
2019-05-18T11:42:43.676Z,8.53
2019-05-18T11:45:15.555Z,4.40
2019-05-18T11:47:45.252Z,7.30
2019-05-18T11:50:15.027Z,8.68
2019-05-18T11:52:44.534Z,6.80
2019-05-18T11:55:14.400Z,6.72
2019-05-18T11:57:43.725Z,5.50
2019-05-18T12:00:14.874Z,2.75
2019-05-18T12:02:44.192Z,5.72
2019-05-18T12:05:14.557Z,2.90
2019-05-18T12:07:43.893Z,6.97
2019-05-18T12:10:13.460Z,7.22
2019-05-18T12:12:42.786Z,7.22
2019-05-18T12:15:12.747Z,2.80
2019-05-18T12:17:42.090Z,2.40
2019-05-18T12:20:12.062Z,4.00
2019-05-18T12:22:41.393Z,6.50
2019-05-18T12:25:11.048Z,6.65
2019-05-18T12:27:40.441Z,6.45
2019-05-18T12:30:11.112Z,7.00
2019-05-18T12:32:40.437Z,6.83
2019-05-18T12:35:10.365Z,5.42
2019-05-18T12:37:39.704Z,6.08
2019-05-18T12:40:10.116Z,5.75
2019-05-18T12:42:39.448Z,6.53
2019-05-18T12:45:09.207Z,6.00
2019-05-18T12:47:38.674Z,6.83
2019-05-18T12:50:09.345Z,2.00
2019-05-18T12:52:38.814Z,1.95
2019-05-18T12:55:09.022Z,2.60
2019-05-18T12:57:38.389Z,2.72
2019-05-18T13:00:10.096Z,4.53
2019-05-18T13:02:39.438Z,3.75
2019-05-18T13:05:09.355Z,3.42
2019-05-18T13:07:38.772Z,3.15
2019-05-18T13:10:10.672Z,2.95
2019-05-18T13:12:41.084Z,2.67
2019-05-18T13:15:12.120Z,3.10
2019-05-18T13:17:41.457Z,3.42
2019-05-18T13:20:11.820Z,3.37
2019-05-18T13:22:41.387Z,2.55
2019-05-18T13:25:11.553Z,2.72
2019-05-18T13:27:40.956Z,4.03
2019-05-18T13:30:12.442Z,2.90
2019-05-18T13:32:41.900Z,1.70
2019-05-18T13:35:11.765Z,1.75
2019-05-18T13:37:41.129Z,3.90
2019-05-18T13:40:12.213Z,2.00
2019-05-18T13:42:41.560Z,1.52
2019-05-18T13:45:11.510Z,2.55
2019-05-18T13:47:40.859Z,3.35
2019-05-18T13:50:11.525Z,2.98
2019-05-18T13:52:40.871Z,2.58
2019-05-18T13:55:10.556Z,2.92
2019-05-18T13:57:39.880Z,2.50
2019-05-18T14:00:09.820Z,2.80
2019-05-18T14:02:39.179Z,1.60
2019-05-18T14:05:08.624Z,3.10
2019-05-18T14:07:37.955Z,2.52
2019-05-18T14:10:08.223Z,1.92
2019-05-18T14:12:37.590Z,1.45
2019-05-18T14:15:07.425Z,1.35
2019-05-18T14:17:36.747Z,2.00
2019-05-18T14:20:06.710Z,3.00
2019-05-18T14:22:36.036Z,3.25
2019-05-18T14:25:18.614Z,1.60
2019-05-18T14:27:38.502Z,2.50
2019-05-18T14:30:08.746Z,2.67
2019-05-18T14:32:38.039Z,2.95
2019-05-18T14:35:08.474Z,3.05
2019-05-18T14:37:38.084Z,2.70
2019-05-18T14:40:08.039Z,2.52
2019-05-18T14:42:37.430Z,2.72
2019-05-18T14:45:08.957Z,2.20
2019-05-18T14:47:38.269Z,2.30
2019-05-18T14:50:10.415Z,2.70
2019-05-18T14:52:39.742Z,2.58
2019-05-18T14:55:10.320Z,1.30
2019-05-18T14:57:39.643Z,2.52
2019-05-18T15:00:09.711Z,3.80
2019-05-18T15:02:39.042Z,1.75
2019-05-18T15:05:09.008Z,1.47
2019-05-18T15:07:38.338Z,3.80
2019-05-18T15:10:08.219Z,3.05
2019-05-18T15:12:37.549Z,3.08
2019-05-18T15:15:08.016Z,2.37
2019-05-18T15:17:37.490Z,2.65
2019-05-18T15:20:08.080Z,2.80
2019-05-18T15:22:37.396Z,2.50
2019-05-18T15:25:07.166Z,1.65
2019-05-18T15:27:36.487Z,2.27
2019-05-18T15:30:07.565Z,3.00
2019-05-18T15:32:36.890Z,2.20
2019-05-18T15:35:09.733Z,1.52
2019-05-18T15:37:43.192Z,2.22
2019-05-18T15:40:11.365Z,1.62
2019-05-18T15:42:40.806Z,1.30
2019-05-18T15:45:12.257Z,1.82
2019-05-18T15:47:41.561Z,2.10
2019-05-18T15:50:11.629Z,2.27
2019-05-18T15:52:41.928Z,1.95
2019-05-18T15:55:11.413Z,2.60
2019-05-18T15:57:40.742Z,2.33
2019-05-18T16:00:10.818Z,2.67
2019-05-18T16:02:40.221Z,2.20
2019-05-18T16:05:09.827Z,2.12
2019-05-18T16:07:39.204Z,1.90
2019-05-18T16:10:09.667Z,1.40
2019-05-18T16:12:39.289Z,1.50
2019-05-18T16:15:09.386Z,1.95
2019-05-18T16:17:40.081Z,1.57
2019-05-18T16:20:10.464Z,1.80
2019-05-18T16:22:39.796Z,1.75
2019-05-18T16:25:10.562Z,1.40
2019-05-18T16:27:39.894Z,1.72
2019-05-18T16:30:10.269Z,1.47
2019-05-18T16:32:39.601Z,1.00
2019-05-18T16:35:09.373Z,1.60
2019-05-18T16:37:38.776Z,10.65
2019-05-18T16:40:08.728Z,34.53
2019-05-18T16:42:38.576Z,29.40
2019-05-18T16:45:10.038Z,25.82
2019-05-18T16:47:39.361Z,7.62
2019-05-18T16:50:09.239Z,5.97
2019-05-18T16:52:38.572Z,8.05
2019-05-18T16:55:08.941Z,5.78
2019-05-18T16:57:38.279Z,3.47
2019-05-18T17:00:15.758Z,4.62
2019-05-18T17:02:43.651Z,6.60
2019-05-18T17:05:15.110Z,4.17
2019-05-18T17:07:44.473Z,4.25
2019-05-18T17:10:15.547Z,17.23
2019-05-18T17:12:44.879Z,13.35
2019-05-18T17:15:14.663Z,13.85
2019-05-18T17:17:44.001Z,5.42
2019-05-18T17:20:13.677Z,5.00
2019-05-18T17:22:43.007Z,2.12
2019-05-18T17:25:12.493Z,2.15
2019-05-18T17:27:42.088Z,2.25
2019-05-18T17:30:11.759Z,4.53
2019-05-18T17:32:41.092Z,17.50
2019-05-18T17:35:11.301Z,4.78
2019-05-18T17:37:40.642Z,4.12
2019-05-18T17:40:10.240Z,5.28
2019-05-18T17:42:39.580Z,3.50
2019-05-18T17:45:09.229Z,3.47
2019-05-18T17:47:39.536Z,2.92
2019-05-18T17:50:10.718Z,2.98
2019-05-18T17:52:40.045Z,3.40
2019-05-18T17:55:09.915Z,4.20
2019-05-18T17:57:39.243Z,5.10
2019-05-18T18:00:09.684Z,4.80
2019-05-18T18:02:40.115Z,5.78
2019-05-18T18:05:09.588Z,7.97
2019-05-18T18:07:39.196Z,7.22
2019-05-18T18:10:08.860Z,7.50
2019-05-18T18:12:38.188Z,6.90
2019-05-18T18:15:08.666Z,8.10
2019-05-18T18:17:38.336Z,13.60
2019-05-18T18:20:08.218Z,11.22
2019-05-18T18:22:37.536Z,8.00
2019-05-18T18:25:07.383Z,8.08
2019-05-18T18:27:37.481Z,7.28
2019-05-18T18:30:11.877Z,7.33
2019-05-18T18:32:41.525Z,7.42
2019-05-18T18:35:13.255Z,7.65
2019-05-18T18:37:42.888Z,6.53
2019-05-18T18:40:12.476Z,6.20
2019-05-18T18:42:41.787Z,5.72
2019-05-18T18:45:11.756Z,5.65
2019-05-18T18:47:41.195Z,5.22
2019-05-18T18:50:10.962Z,4.83
2019-05-18T18:52:40.286Z,4.37
2019-05-18T18:55:10.200Z,4.08
2019-05-18T18:57:41.686Z,3.80
2019-05-18T19:00:11.293Z,3.98
2019-05-18T19:02:40.670Z,3.60
2019-05-18T19:05:10.299Z,4.20
2019-05-18T19:07:39.623Z,3.87
2019-05-18T19:10:09.702Z,3.90
2019-05-18T19:12:39.026Z,3.95
2019-05-18T19:15:09.608Z,4.10
2019-05-18T19:17:39.180Z,4.58
2019-05-18T19:20:09.830Z,4.72
2019-05-18T19:22:39.154Z,5.42
2019-05-18T19:25:08.831Z,5.78
2019-05-18T19:27:38.161Z,5.65
2019-05-18T19:30:09.913Z,5.72
2019-05-18T19:32:39.159Z,5.95
2019-05-18T19:35:09.253Z,5.97
2019-05-18T19:37:38.588Z,5.80
2019-05-18T19:40:10.438Z,6.12
2019-05-18T19:42:40.077Z,6.92
2019-05-18T19:45:10.353Z,6.95
2019-05-18T19:47:39.696Z,7.45
2019-05-18T19:50:09.546Z,7.08
2019-05-18T19:52:38.879Z,7.95
2019-05-18T19:55:09.064Z,8.38
2019-05-18T19:57:38.390Z,8.85
2019-05-18T20:00:09.633Z,9.28
2019-05-18T20:02:39.047Z,9.93
2019-05-18T20:05:09.556Z,8.95
2019-05-18T20:07:39.207Z,10.30
2019-05-18T20:10:10.207Z,9.98
2019-05-18T20:12:39.643Z,10.45
2019-05-18T20:15:09.969Z,10.90
2019-05-18T20:17:40.449Z,11.33
2019-05-18T20:20:12.192Z,11.90
2019-05-18T20:22:41.805Z,11.40
2019-05-18T20:25:11.387Z,11.28
2019-05-18T20:27:40.733Z,10.93
2019-05-18T20:30:10.630Z,11.53
2019-05-18T20:32:40.360Z,11.90
2019-05-18T20:35:10.538Z,12.33
2019-05-18T20:37:39.875Z,12.00
2019-05-18T20:40:12.057Z,12.25
2019-05-18T20:42:41.401Z,11.73
2019-05-18T20:45:11.384Z,12.68
2019-05-18T20:47:40.724Z,12.45
2019-05-18T20:50:11.011Z,12.35
2019-05-18T20:52:40.348Z,12.82
2019-05-18T20:55:09.924Z,12.30
2019-05-18T20:57:39.622Z,13.10
2019-05-18T21:00:09.282Z,12.78
2019-05-18T21:02:40.592Z,12.93
2019-05-18T21:05:10.058Z,13.35
2019-05-18T21:07:39.464Z,13.68
2019-05-18T21:10:09.281Z,12.55
2019-05-18T21:12:39.562Z,14.47
2019-05-18T21:15:09.923Z,14.45
2019-05-18T21:17:39.267Z,15.43
2019-05-18T21:20:09.154Z,15.43
2019-05-18T21:22:38.484Z,15.68
2019-05-18T21:25:08.299Z,16.37
2019-05-18T21:27:37.640Z,15.45
2019-05-18T21:30:07.812Z,15.72
2019-05-18T21:32:37.505Z,16.48
2019-05-18T21:35:07.712Z,15.30
2019-05-18T21:37:37.054Z,15.60
2019-05-18T21:40:07.156Z,16.45
2019-05-18T21:42:36.719Z,14.10
2019-05-18T21:45:09.284Z,14.65
2019-05-18T21:47:38.626Z,13.15
2019-05-18T21:50:09.423Z,13.45
2019-05-18T21:52:41.755Z,13.60
2019-05-18T21:55:10.010Z,13.30
2019-05-18T21:57:39.342Z,13.72
2019-05-18T22:00:10.623Z,14.00
2019-05-18T22:02:41.580Z,13.05
2019-05-18T22:05:11.515Z,15.48
2019-05-18T22:07:40.856Z,14.80
2019-05-18T22:10:24.836Z,14.07
2019-05-18T22:12:41.454Z,14.53
2019-05-18T22:15:10.931Z,14.28
2019-05-18T22:17:57.230Z,13.55
2019-05-18T22:20:26.588Z,15.68
2019-05-18T22:22:56.880Z,14.03
2019-05-18T22:25:26.510Z,14.58
2019-05-18T22:27:56.124Z,14.30
2019-05-18T22:30:25.736Z,16.07
2019-05-18T22:32:55.155Z,17.55
2019-05-18T22:35:24.742Z,17.32
2019-05-18T22:37:54.359Z,16.55
2019-05-18T22:40:23.703Z,16.23
2019-05-18T22:42:53.034Z,16.15
2019-05-18T22:45:22.377Z,17.50
2019-05-18T22:47:51.717Z,17.67
2019-05-18T22:50:21.384Z,16.70
2019-05-18T22:52:50.981Z,17.42
2019-05-18T22:55:20.317Z,17.10
2019-05-18T22:57:49.660Z,16.62
2019-05-18T23:00:19.329Z,17.40
2019-05-18T23:02:48.671Z,16.35
2019-05-18T23:05:18.013Z,16.77
2019-05-18T23:07:47.343Z,16.77
2019-05-18T23:10:17.925Z,17.15
2019-05-18T23:12:47.250Z,16.70
2019-05-18T23:15:16.673Z,17.23
2019-05-18T23:17:46.003Z,17.65
2019-05-18T23:20:15.409Z,19.40
2019-05-18T23:22:44.744Z,18.92
2019-05-18T23:25:14.222Z,17.65
2019-05-18T23:27:43.552Z,18.45
2019-05-18T23:30:13.369Z,17.65
2019-05-18T23:32:42.700Z,16.05
2019-05-18T23:35:12.053Z,18.30
2019-05-18T23:37:41.378Z,18.25
2019-05-18T23:40:10.907Z,20.60
2019-05-18T23:42:40.245Z,19.42
2019-05-18T23:45:10.119Z,19.07
2019-05-18T23:47:39.526Z,20.50
2019-05-18T23:50:10.052Z,19.55
2019-05-18T23:52:39.390Z,20.75
2019-05-18T23:55:09.655Z,20.15
2019-05-18T23:57:38.990Z,20.75
